sensor_id;sensor_type;location;lat;lon;timestamp;P1;durP1;ratioP1;P2;durP2;ratioP2
20972;SDS011;10645;52.370;13.314;2023-08-20T00:01:02;7.88;;;7.07;;
20972;SDS011;10645;52.370;13.314;2023-08-20T00:03:30;7.57;;;6.88;;
20972;SDS011;10645;52.370;13.314;2023-08-20T00:05:56;8.35;;;6.32;;
20972;SDS011;10645;52.370;13.314;2023-08-20T00:08:22;6.88;;;6.28;;
20972;SDS011;10645;52.370;13.314;2023-08-20T00:10:48;7.07;;;5.82;;
20972;SDS011;10645;52.370;13.314;2023-08-20T00:13:14;7.18;;;6.57;;
20972;SDS011;10645;52.370;13.314;2023-08-20T00:15:40;8.35;;;7.32;;
20972;SDS011;10645;52.370;13.314;2023-08-20T00:18:07;8.25;;;6.40;;
20972;SDS011;10645;52.370;13.314;2023-08-20T00:20:33;7.05;;;6.35;;
20972;SDS011;10645;52.370;13.314;2023-08-20T00:22:59;6.75;;;5.90;;
20972;SDS011;10645;52.370;13.314;2023-08-20T00:25:26;9.77;;;7.47;;
20972;SDS011;10645;52.370;13.314;2023-08-20T00:27:52;8.60;;;7.32;;
20972;SDS011;10645;52.370;13.314;2023-08-20T00:30:18;9.50;;;6.40;;
20972;SDS011;10645;52.370;13.314;2023-08-20T00:32:45;9.35;;;6.63;;
20972;SDS011;10645;52.370;13.314;2023-08-20T00:35:11;9.23;;;6.80;;
20972;SDS011;10645;52.370;13.314;2023-08-20T00:37:37;7.03;;;6.30;;
20972;SDS011;10645;52.370;13.314;2023-08-20T00:40:04;7.55;;;6.75;;
20972;SDS011;10645;52.370;13.314;2023-08-20T00:42:30;7.35;;;6.20;;
20972;SDS011;10645;52.370;13.314;2023-08-20T00:44:56;10.38;;;7.10;;
20972;SDS011;10645;52.370;13.314;2023-08-20T00:47:22;8.55;;;6.13;;
20972;SDS011;10645;52.370;13.314;2023-08-20T00:49:48;8.70;;;7.80;;
20972;SDS011;10645;52.370;13.314;2023-08-20T00:52:15;7.85;;;5.90;;
20972;SDS011;10645;52.370;13.314;2023-08-20T00:54:44;7.45;;;6.28;;
20972;SDS011;10645;52.370;13.314;2023-08-20T00:57:12;7.60;;;6.43;;
20972;SDS011;10645;52.370;13.314;2023-08-20T00:59:41;11.88;;;7.15;;
20972;SDS011;10645;52.370;13.314;2023-08-20T01:02:08;8.27;;;7.43;;
20972;SDS011;10645;52.370;13.314;2023-08-20T01:04:34;7.57;;;6.82;;
20972;SDS011;10645;52.370;13.314;2023-08-20T01:07:04;8.52;;;7.68;;
20972;SDS011;10645;52.370;13.314;2023-08-20T01:09:48;7.85;;;7.05;;
20972;SDS011;10645;52.370;13.314;2023-08-20T01:12:25;7.18;;;6.22;;
20972;SDS011;10645;52.370;13.314;2023-08-20T01:14:52;10.95;;;8.52;;
20972;SDS011;10645;52.370;13.314;2023-08-20T01:17:18;8.30;;;7.05;;
20972;SDS011;10645;52.370;13.314;2023-08-20T01:19:44;10.40;;;7.70;;
20972;SDS011;10645;52.370;13.314;2023-08-20T01:22:21;7.05;;;6.35;;
20972;SDS011;10645;52.370;13.314;2023-08-20T01:28:18;7.55;;;6.88;;
20972;SDS011;10645;52.370;13.314;2023-08-20T01:30:58;7.68;;;6.35;;
20972;SDS011;10645;52.370;13.314;2023-08-20T01:33:26;7.47;;;6.65;;
20972;SDS011;10645;52.370;13.314;2023-08-20T01:35:53;8.40;;;6.13;;
20972;SDS011;10645;52.370;13.314;2023-08-20T01:38:20;6.78;;;6.22;;
20972;SDS011;10645;52.370;13.314;2023-08-20T01:40:47;7.50;;;5.30;;
20972;SDS011;10645;52.370;13.314;2023-08-20T01:43:14;5.47;;;4.75;;
20972;SDS011;10645;52.370;13.314;2023-08-20T01:45:41;7.75;;;6.00;;
20972;SDS011;10645;52.370;13.314;2023-08-20T01:48:07;7.22;;;5.63;;
20972;SDS011;10645;52.370;13.314;2023-08-20T01:50:34;5.90;;;5.28;;
20972;SDS011;10645;52.370;13.314;2023-08-20T01:53:01;4.93;;;4.28;;
20972;SDS011;10645;52.370;13.314;2023-08-20T01:55:29;5.35;;;4.85;;
20972;SDS011;10645;52.370;13.314;2023-08-20T01:57:55;5.22;;;4.53;;
20972;SDS011;10645;52.370;13.314;2023-08-20T02:00:21;6.15;;;5.10;;
20972;SDS011;10645;52.370;13.314;2023-08-20T02:02:47;5.45;;;4.28;;
20972;SDS011;10645;52.370;13.314;2023-08-20T02:05:13;5.63;;;5.07;;
20972;SDS011;10645;52.370;13.314;2023-08-20T02:07:39;6.15;;;5.55;;
20972;SDS011;10645;52.370;13.314;2023-08-20T02:10:05;6.88;;;5.70;;
20972;SDS011;10645;52.370;13.314;2023-08-20T02:12:32;7.15;;;5.95;;
20972;SDS011;10645;52.370;13.314;2023-08-20T02:14:58;5.82;;;4.88;;
20972;SDS011;10645;52.370;13.314;2023-08-20T02:17:24;4.63;;;4.22;;
20972;SDS011;10645;52.370;13.314;2023-08-20T02:19:50;5.10;;;4.60;;
20972;SDS011;10645;52.370;13.314;2023-08-20T02:22:16;7.78;;;5.15;;
20972;SDS011;10645;52.370;13.314;2023-08-20T02:24:44;5.85;;;5.18;;
20972;SDS011;10645;52.370;13.314;2023-08-20T02:27:10;5.60;;;5.10;;
20972;SDS011;10645;52.370;13.314;2023-08-20T02:29:36;5.97;;;5.40;;
20972;SDS011;10645;52.370;13.314;2023-08-20T02:32:03;6.57;;;5.13;;
20972;SDS011;10645;52.370;13.314;2023-08-20T02:34:29;5.60;;;4.20;;
20972;SDS011;10645;52.370;13.314;2023-08-20T02:36:55;7.68;;;6.65;;
20972;SDS011;10645;52.370;13.314;2023-08-20T02:39:22;4.85;;;4.38;;
20972;SDS011;10645;52.370;13.314;2023-08-20T02:41:49;4.70;;;4.28;;
20972;SDS011;10645;52.370;13.314;2023-08-20T02:44:15;5.25;;;4.75;;
20972;SDS011;10645;52.370;13.314;2023-08-20T02:46:41;5.80;;;4.95;;
20972;SDS011;10645;52.370;13.314;2023-08-20T02:49:10;6.38;;;5.68;;
20972;SDS011;10645;52.370;13.314;2023-08-20T02:51:36;4.90;;;4.40;;
20972;SDS011;10645;52.370;13.314;2023-08-20T02:54:02;6.25;;;4.15;;
20972;SDS011;10645;52.370;13.314;2023-08-20T02:56:28;5.20;;;4.72;;
20972;SDS011;10645;52.370;13.314;2023-08-20T02:58:54;4.63;;;4.20;;
20972;SDS011;10645;52.370;13.314;2023-08-20T03:01:21;5.15;;;4.72;;
20972;SDS011;10645;52.370;13.314;2023-08-20T03:03:48;5.60;;;5.10;;
20972;SDS011;10645;52.370;13.314;2023-08-20T03:06:14;5.47;;;4.95;;
20972;SDS011;10645;52.370;13.314;2023-08-20T03:08:40;4.43;;;3.95;;
20972;SDS011;10645;52.370;13.314;2023-08-20T03:11:06;5.63;;;4.25;;
20972;SDS011;10645;52.370;13.314;2023-08-20T03:13:33;9.48;;;5.38;;
20972;SDS011;10645;52.370;13.314;2023-08-20T03:15:59;5.55;;;5.03;;
20972;SDS011;10645;52.370;13.314;2023-08-20T03:18:26;7.57;;;5.80;;
20972;SDS011;10645;52.370;13.314;2023-08-20T03:20:54;5.38;;;4.85;;
20972;SDS011;10645;52.370;13.314;2023-08-20T03:23:23;5.55;;;3.97;;
20972;SDS011;10645;52.370;13.314;2023-08-20T03:25:49;7.90;;;5.90;;
20972;SDS011;10645;52.370;13.314;2023-08-20T03:28:17;5.32;;;4.82;;
20972;SDS011;10645;52.370;13.314;2023-08-20T03:30:44;7.47;;;5.53;;
20972;SDS011;10645;52.370;13.314;2023-08-20T03:33:12;5.53;;;5.05;;
20972;SDS011;10645;52.370;13.314;2023-08-20T03:35:40;7.28;;;5.57;;
20972;SDS011;10645;52.370;13.314;2023-08-20T03:38:06;7.95;;;5.15;;
20972;SDS011;10645;52.370;13.314;2023-08-20T03:40:32;5.85;;;5.32;;
20972;SDS011;10645;52.370;13.314;2023-08-20T03:42:58;6.68;;;5.35;;
20972;SDS011;10645;52.370;13.314;2023-08-20T03:45:24;6.10;;;5.53;;
20972;SDS011;10645;52.370;13.314;2023-08-20T03:47:51;5.25;;;4.75;;
20972;SDS011;10645;52.370;13.314;2023-08-20T03:50:17;7.38;;;6.57;;
20972;SDS011;10645;52.370;13.314;2023-08-20T03:52:44;5.68;;;4.95;;
20972;SDS011;10645;52.370;13.314;2023-08-20T03:55:10;8.02;;;6.22;;
20972;SDS011;10645;52.370;13.314;2023-08-20T03:57:36;5.53;;;4.82;;
20972;SDS011;10645;52.370;13.314;2023-08-20T04:00:04;5.53;;;4.95;;
20972;SDS011;10645;52.370;13.314;2023-08-20T04:02:40;5.53;;;4.95;;
20972;SDS011;10645;52.370;13.314;2023-08-20T04:05:07;6.18;;;5.05;;
20972;SDS011;10645;52.370;13.314;2023-08-20T04:07:33;5.78;;;5.28;;
20972;SDS011;10645;52.370;13.314;2023-08-20T04:09:59;7.05;;;4.95;;
20972;SDS011;10645;52.370;13.314;2023-08-20T04:12:25;6.68;;;5.80;;
20972;SDS011;10645;52.370;13.314;2023-08-20T04:14:51;6.25;;;5.70;;
20972;SDS011;10645;52.370;13.314;2023-08-20T04:17:17;6.75;;;5.68;;
20972;SDS011;10645;52.370;13.314;2023-08-20T04:19:43;7.10;;;6.47;;
20972;SDS011;10645;52.370;13.314;2023-08-20T04:22:09;6.75;;;5.93;;
20972;SDS011;10645;52.370;13.314;2023-08-20T04:24:36;5.75;;;4.90;;
20972;SDS011;10645;52.370;13.314;2023-08-20T04:27:02;7.00;;;6.30;;
20972;SDS011;10645;52.370;13.314;2023-08-20T04:29:29;8.60;;;5.50;;
20972;SDS011;10645;52.370;13.314;2023-08-20T04:31:55;7.45;;;6.25;;
20972;SDS011;10645;52.370;13.314;2023-08-20T04:34:21;6.30;;;5.65;;
20972;SDS011;10645;52.370;13.314;2023-08-20T04:36:50;6.80;;;5.50;;
20972;SDS011;10645;52.370;13.314;2023-08-20T04:39:17;6.35;;;5.75;;
20972;SDS011;10645;52.370;13.314;2023-08-20T04:41:48;6.85;;;5.50;;
20972;SDS011;10645;52.370;13.314;2023-08-20T04:44:16;7.28;;;6.57;;
20972;SDS011;10645;52.370;13.314;2023-08-20T04:46:43;5.32;;;4.82;;
20972;SDS011;10645;52.370;13.314;2023-08-20T04:49:10;6.68;;;5.75;;
20972;SDS011;10645;52.370;13.314;2023-08-20T04:51:38;7.57;;;5.47;;
20972;SDS011;10645;52.370;13.314;2023-08-20T04:54:04;6.15;;;4.95;;
20972;SDS011;10645;52.370;13.314;2023-08-20T04:56:30;7.18;;;6.45;;
20972;SDS011;10645;52.370;13.314;2023-08-20T04:58:56;9.10;;;5.78;;
20972;SDS011;10645;52.370;13.314;2023-08-20T05:01:42;9.63;;;6.95;;
20972;SDS011;10645;52.370;13.314;2023-08-20T05:04:08;7.80;;;6.20;;
20972;SDS011;10645;52.370;13.314;2023-08-20T05:06:34;18.83;;;6.18;;
20972;SDS011;10645;52.370;13.314;2023-08-20T05:09:01;8.70;;;7.88;;
20972;SDS011;10645;52.370;13.314;2023-08-20T05:11:27;7.95;;;6.40;;
20972;SDS011;10645;52.370;13.314;2023-08-20T05:13:55;6.85;;;5.68;;
20972;SDS011;10645;52.370;13.314;2023-08-20T05:16:21;8.80;;;6.38;;
20972;SDS011;10645;52.370;13.314;2023-08-20T05:18:47;5.55;;;4.75;;
20972;SDS011;10645;52.370;13.314;2023-08-20T05:21:13;6.32;;;5.43;;
20972;SDS011;10645;52.370;13.314;2023-08-20T05:23:39;6.85;;;6.22;;
20972;SDS011;10645;52.370;13.314;2023-08-20T05:26:06;7.70;;;5.20;;
20972;SDS011;10645;52.370;13.314;2023-08-20T05:28:33;6.57;;;5.97;;
20972;SDS011;10645;52.370;13.314;2023-08-20T05:31:00;11.25;;;6.25;;
20972;SDS011;10645;52.370;13.314;2023-08-20T05:33:26;8.13;;;6.38;;
20972;SDS011;10645;52.370;13.314;2023-08-20T05:35:53;7.03;;;6.28;;
20972;SDS011;10645;52.370;13.314;2023-08-20T05:38:21;9.43;;;8.40;;
20972;SDS011;10645;52.370;13.314;2023-08-20T05:40:48;7.95;;;6.68;;
20972;SDS011;10645;52.370;13.314;2023-08-20T05:43:14;9.52;;;7.10;;
20972;SDS011;10645;52.370;13.314;2023-08-20T05:45:41;9.07;;;6.70;;
20972;SDS011;10645;52.370;13.314;2023-08-20T05:48:09;8.48;;;6.95;;
20972;SDS011;10645;52.370;13.314;2023-08-20T05:50:35;6.90;;;5.55;;
20972;SDS011;10645;52.370;13.314;2023-08-20T05:53:01;7.93;;;5.45;;
20972;SDS011;10645;52.370;13.314;2023-08-20T05:55:29;6.82;;;6.07;;
20972;SDS011;10645;52.370;13.314;2023-08-20T05:57:55;5.47;;;4.97;;
20972;SDS011;10645;52.370;13.314;2023-08-20T06:00:21;7.38;;;6.55;;
20972;SDS011;10645;52.370;13.314;2023-08-20T06:02:48;9.93;;;5.78;;
20972;SDS011;10645;52.370;13.314;2023-08-20T06:05:14;7.00;;;6.07;;
20972;SDS011;10645;52.370;13.314;2023-08-20T06:07:40;6.72;;;5.28;;
20972;SDS011;10645;52.370;13.314;2023-08-20T06:10:06;7.35;;;5.65;;
20972;SDS011;10645;52.370;13.314;2023-08-20T06:12:33;7.28;;;5.65;;
20972;SDS011;10645;52.370;13.314;2023-08-20T06:14:59;7.43;;;6.07;;
20972;SDS011;10645;52.370;13.314;2023-08-20T06:17:25;5.03;;;4.63;;
20972;SDS011;10645;52.370;13.314;2023-08-20T06:19:51;5.88;;;4.65;;
20972;SDS011;10645;52.370;13.314;2023-08-20T06:22:17;6.18;;;4.55;;
20972;SDS011;10645;52.370;13.314;2023-08-20T06:24:43;3.42;;;3.17;;
20972;SDS011;10645;52.370;13.314;2023-08-20T06:27:10;5.43;;;4.65;;
20972;SDS011;10645;52.370;13.314;2023-08-20T06:29:36;4.53;;;4.10;;
20972;SDS011;10645;52.370;13.314;2023-08-20T06:32:02;4.72;;;4.15;;
20972;SDS011;10645;52.370;13.314;2023-08-20T06:34:29;4.90;;;3.70;;
20972;SDS011;10645;52.370;13.314;2023-08-20T06:36:55;3.33;;;3.03;;
20972;SDS011;10645;52.370;13.314;2023-08-20T06:39:21;4.43;;;4.03;;
20972;SDS011;10645;52.370;13.314;2023-08-20T06:41:47;5.05;;;4.63;;
20972;SDS011;10645;52.370;13.314;2023-08-20T06:44:19;4.97;;;4.47;;
20972;SDS011;10645;52.370;13.314;2023-08-20T06:46:45;9.82;;;4.28;;
20972;SDS011;10645;52.370;13.314;2023-08-20T06:49:11;5.88;;;4.53;;
20972;SDS011;10645;52.370;13.314;2023-08-20T06:51:37;7.07;;;4.50;;
20972;SDS011;10645;52.370;13.314;2023-08-20T06:54:04;5.65;;;4.03;;
20972;SDS011;10645;52.370;13.314;2023-08-20T06:56:32;5.60;;;4.40;;
20972;SDS011;10645;52.370;13.314;2023-08-20T06:58:58;5.28;;;4.78;;
20972;SDS011;10645;52.370;13.314;2023-08-20T07:01:24;7.18;;;3.53;;
20972;SDS011;10645;52.370;13.314;2023-08-20T07:03:50;4.50;;;4.07;;
20972;SDS011;10645;52.370;13.314;2023-08-20T07:06:16;3.60;;;3.30;;
20972;SDS011;10645;52.370;13.314;2023-08-20T07:08:44;5.10;;;4.47;;
20972;SDS011;10645;52.370;13.314;2023-08-20T07:11:10;3.25;;;2.88;;
20972;SDS011;10645;52.370;13.314;2023-08-20T07:13:36;4.35;;;3.40;;
20972;SDS011;10645;52.370;13.314;2023-08-20T07:16:02;5.13;;;3.85;;
20972;SDS011;10645;52.370;13.314;2023-08-20T07:18:29;2.63;;;2.33;;
20972;SDS011;10645;52.370;13.314;2023-08-20T07:20:55;4.32;;;2.85;;
20972;SDS011;10645;52.370;13.314;2023-08-20T07:23:21;3.05;;;2.75;;
20972;SDS011;10645;52.370;13.314;2023-08-20T07:25:48;2.88;;;2.58;;
20972;SDS011;10645;52.370;13.314;2023-08-20T07:28:17;3.00;;;2.75;;
20972;SDS011;10645;52.370;13.314;2023-08-20T07:31:06;2.42;;;1.98;;
20972;SDS011;10645;52.370;13.314;2023-08-20T07:33:32;3.28;;;2.50;;
20972;SDS011;10645;52.370;13.314;2023-08-20T07:35:58;4.90;;;2.30;;
20972;SDS011;10645;52.370;13.314;2023-08-20T07:38:24;3.17;;;1.85;;
20972;SDS011;10645;52.370;13.314;2023-08-20T07:40:50;3.17;;;2.63;;
20972;SDS011;10645;52.370;13.314;2023-08-20T07:43:16;2.97;;;1.95;;
20972;SDS011;10645;52.370;13.314;2023-08-20T07:45:42;2.53;;;2.40;;
20972;SDS011;10645;52.370;13.314;2023-08-20T07:48:08;2.70;;;2.13;;
20972;SDS011;10645;52.370;13.314;2023-08-20T07:50:34;2.10;;;1.95;;
20972;SDS011;10645;52.370;13.314;2023-08-20T07:53:01;2.97;;;2.70;;
20972;SDS011;10645;52.370;13.314;2023-08-20T07:55:27;2.33;;;2.13;;
20972;SDS011;10645;52.370;13.314;2023-08-20T07:57:53;3.60;;;2.63;;
20972;SDS011;10645;52.370;13.314;2023-08-20T08:00:19;2.63;;;2.25;;
20972;SDS011;10645;52.370;13.314;2023-08-20T08:02:45;2.10;;;1.90;;
20972;SDS011;10645;52.370;13.314;2023-08-20T08:05:11;2.13;;;1.85;;
20972;SDS011;10645;52.370;13.314;2023-08-20T08:07:39;3.95;;;2.08;;
20972;SDS011;10645;52.370;13.314;2023-08-20T08:10:05;1.73;;;1.52;;
20972;SDS011;10645;52.370;13.314;2023-08-20T08:12:32;2.13;;;1.92;;
20972;SDS011;10645;52.370;13.314;2023-08-20T08:14:58;2.40;;;1.58;;
20972;SDS011;10645;52.370;13.314;2023-08-20T08:17:24;3.55;;;1.63;;
20972;SDS011;10645;52.370;13.314;2023-08-20T08:19:50;2.17;;;1.92;;
20972;SDS011;10645;52.370;13.314;2023-08-20T08:22:20;3.03;;;2.83;;
20972;SDS011;10645;52.370;13.314;2023-08-20T08:24:46;4.38;;;2.97;;
20972;SDS011;10645;52.370;13.314;2023-08-20T08:27:12;2.55;;;1.60;;
20972;SDS011;10645;52.370;13.314;2023-08-20T08:29:38;1.23;;;1.13;;
20972;SDS011;10645;52.370;13.314;2023-08-20T08:32:04;1.45;;;1.30;;
20972;SDS011;10645;52.370;13.314;2023-08-20T08:34:30;1.85;;;1.75;;
20972;SDS011;10645;52.370;13.314;2023-08-20T08:36:56;1.85;;;1.63;;
20972;SDS011;10645;52.370;13.314;2023-08-20T08:39:22;1.02;;;1.02;;
20972;SDS011;10645;52.370;13.314;2023-08-20T08:41:49;1.08;;;0.98;;
20972;SDS011;10645;52.370;13.314;2023-08-20T08:44:17;2.20;;;1.60;;
20972;SDS011;10645;52.370;13.314;2023-08-20T08:46:44;1.33;;;1.23;;
20972;SDS011;10645;52.370;13.314;2023-08-20T08:49:13;0.80;;;0.80;;
20972;SDS011;10645;52.370;13.314;2023-08-20T08:51:40;2.13;;;1.60;;
20972;SDS011;10645;52.370;13.314;2023-08-20T08:54:10;1.00;;;0.82;;
20972;SDS011;10645;52.370;13.314;2023-08-20T08:56:36;1.23;;;0.95;;
20972;SDS011;10645;52.370;13.314;2023-08-20T08:59:02;1.65;;;1.20;;
20972;SDS011;10645;52.370;13.314;2023-08-20T09:01:28;1.02;;;0.90;;
20972;SDS011;10645;52.370;13.314;2023-08-20T09:03:54;1.70;;;1.60;;
20972;SDS011;10645;52.370;13.314;2023-08-20T09:06:21;1.45;;;1.33;;
20972;SDS011;10645;52.370;13.314;2023-08-20T09:08:47;1.00;;;0.90;;
20972;SDS011;10645;52.370;13.314;2023-08-20T09:11:13;1.00;;;0.90;;
20972;SDS011;10645;52.370;13.314;2023-08-20T09:13:40;2.20;;;1.33;;
20972;SDS011;10645;52.370;13.314;2023-08-20T09:16:08;3.30;;;1.45;;
20972;SDS011;10645;52.370;13.314;2023-08-20T09:18:38;1.08;;;1.00;;
20972;SDS011;10645;52.370;13.314;2023-08-20T09:21:09;0.80;;;0.80;;
20972;SDS011;10645;52.370;13.314;2023-08-20T09:23:36;1.35;;;0.95;;
20972;SDS011;10645;52.370;13.314;2023-08-20T09:26:03;1.63;;;1.52;;
20972;SDS011;10645;52.370;13.314;2023-08-20T09:28:44;1.45;;;1.35;;
20972;SDS011;10645;52.370;13.314;2023-08-20T09:31:11;1.52;;;1.42;;
20972;SDS011;10645;52.370;13.314;2023-08-20T09:33:48;1.92;;;1.70;;
20972;SDS011;10645;52.370;13.314;2023-08-20T09:36:15;2.45;;;1.88;;
20972;SDS011;10645;52.370;13.314;2023-08-20T09:38:41;1.50;;;1.40;;
20972;SDS011;10645;52.370;13.314;2023-08-20T09:41:08;1.55;;;1.45;;
20972;SDS011;10645;52.370;13.314;2023-08-20T09:43:36;1.65;;;1.55;;
20972;SDS011;10645;52.370;13.314;2023-08-20T09:46:03;1.20;;;1.10;;
20972;SDS011;10645;52.370;13.314;2023-08-20T09:48:34;1.27;;;1.17;;
20972;SDS011;10645;52.370;13.314;2023-08-20T09:51:04;2.38;;;1.30;;
20972;SDS011;10645;52.370;13.314;2023-08-20T09:53:37;1.35;;;1.05;;
20972;SDS011;10645;52.370;13.314;2023-08-20T09:56:14;1.88;;;1.48;;
20972;SDS011;10645;52.370;13.314;2023-08-20T09:58:48;2.92;;;2.03;;
20972;SDS011;10645;52.370;13.314;2023-08-20T10:01:16;2.20;;;1.60;;
20972;SDS011;10645;52.370;13.314;2023-08-20T10:03:43;1.23;;;1.15;;
20972;SDS011;10645;52.370;13.314;2023-08-20T10:06:09;2.08;;;1.30;;
20972;SDS011;10645;52.370;13.314;2023-08-20T10:08:36;1.27;;;1.23;;
20972;SDS011;10645;52.370;13.314;2023-08-20T10:11:03;1.98;;;1.40;;
20972;SDS011;10645;52.370;13.314;2023-08-20T10:13:29;1.00;;;1.00;;
20972;SDS011;10645;52.370;13.314;2023-08-20T10:15:56;1.80;;;1.52;;
20972;SDS011;10645;52.370;13.314;2023-08-20T10:18:22;1.83;;;1.48;;
20972;SDS011;10645;52.370;13.314;2023-08-20T10:20:51;1.67;;;1.58;;
20972;SDS011;10645;52.370;13.314;2023-08-20T10:23:21;1.50;;;1.08;;
20972;SDS011;10645;52.370;13.314;2023-08-20T10:25:53;0.93;;;0.80;;
20972;SDS011;10645;52.370;13.314;2023-08-20T10:28:24;1.33;;;1.23;;
20972;SDS011;10645;52.370;13.314;2023-08-20T10:31:10;1.38;;;1.27;;
20972;SDS011;10645;52.370;13.314;2023-08-20T10:33:38;1.40;;;1.15;;
20972;SDS011;10645;52.370;13.314;2023-08-20T10:36:16;1.35;;;1.15;;
20972;SDS011;10645;52.370;13.314;2023-08-20T10:38:44;1.48;;;1.10;;
20972;SDS011;10645;52.370;13.314;2023-08-20T10:41:11;1.45;;;1.35;;
20972;SDS011;10645;52.370;13.314;2023-08-20T10:43:38;1.83;;;1.73;;
20972;SDS011;10645;52.370;13.314;2023-08-20T10:46:16;1.80;;;1.42;;
20972;SDS011;10645;52.370;13.314;2023-08-20T10:48:45;1.35;;;1.25;;
20972;SDS011;10645;52.370;13.314;2023-08-20T10:51:37;2.05;;;1.33;;
20972;SDS011;10645;52.370;13.314;2023-08-20T10:54:07;1.73;;;1.63;;
20972;SDS011;10645;52.370;13.314;2023-08-20T11:01:56;4.70;;;2.05;;
20972;SDS011;10645;52.370;13.314;2023-08-20T11:04:24;1.48;;;1.38;;
20972;SDS011;10645;52.370;13.314;2023-08-20T11:06:54;2.35;;;2.15;;
20972;SDS011;10645;52.370;13.314;2023-08-20T11:09:22;2.60;;;1.83;;
20972;SDS011;10645;52.370;13.314;2023-08-20T11:11:49;3.10;;;2.28;;
20972;SDS011;10645;52.370;13.314;2023-08-20T11:14:17;2.13;;;1.52;;
20972;SDS011;10645;52.370;13.314;2023-08-20T11:16:45;2.30;;;1.55;;
20972;SDS011;10645;52.370;13.314;2023-08-20T11:19:12;1.27;;;1.13;;
20972;SDS011;10645;52.370;13.314;2023-08-20T11:21:39;1.65;;;1.55;;
20972;SDS011;10645;52.370;13.314;2023-08-20T11:24:06;1.90;;;1.67;;
20972;SDS011;10645;52.370;13.314;2023-08-20T11:26:33;1.45;;;1.35;;
20972;SDS011;10645;52.370;13.314;2023-08-20T11:29:09;1.63;;;1.27;;
20972;SDS011;10645;52.370;13.314;2023-08-20T11:31:40;5.05;;;2.08;;
20972;SDS011;10645;52.370;13.314;2023-08-20T11:34:06;1.35;;;1.25;;
20972;SDS011;10645;52.370;13.314;2023-08-20T11:36:36;2.40;;;1.90;;
20972;SDS011;10645;52.370;13.314;2023-08-20T11:39:04;1.55;;;1.45;;
20972;SDS011;10645;52.370;13.314;2023-08-20T11:41:31;1.92;;;1.80;;
20972;SDS011;10645;52.370;13.314;2023-08-20T11:44:02;1.77;;;1.30;;
20972;SDS011;10645;52.370;13.314;2023-08-20T11:46:28;1.73;;;1.63;;
20972;SDS011;10645;52.370;13.314;2023-08-20T11:51:38;1.90;;;1.70;;
20972;SDS011;10645;52.370;13.314;2023-08-20T11:54:05;1.60;;;1.50;;
20972;SDS011;10645;52.370;13.314;2023-08-20T11:56:33;5.00;;;2.40;;
20972;SDS011;10645;52.370;13.314;2023-08-20T11:59:00;1.83;;;1.73;;
20972;SDS011;10645;52.370;13.314;2023-08-20T12:01:31;1.27;;;1.17;;
20972;SDS011;10645;52.370;13.314;2023-08-20T12:04:04;2.05;;;1.75;;
20972;SDS011;10645;52.370;13.314;2023-08-20T12:06:31;1.48;;;1.33;;
20972;SDS011;10645;52.370;13.314;2023-08-20T12:08:58;1.40;;;1.30;;
20972;SDS011;10645;52.370;13.314;2023-08-20T12:11:25;1.70;;;1.60;;
20972;SDS011;10645;52.370;13.314;2023-08-20T12:13:53;2.08;;;1.70;;
20972;SDS011;10645;52.370;13.314;2023-08-20T12:16:23;1.30;;;1.20;;
20972;SDS011;10645;52.370;13.314;2023-08-20T12:18:52;1.40;;;1.30;;
20972;SDS011;10645;52.370;13.314;2023-08-20T12:21:18;1.70;;;1.60;;
20972;SDS011;10645;52.370;13.314;2023-08-20T12:23:44;2.78;;;1.33;;
20972;SDS011;10645;52.370;13.314;2023-08-20T12:26:10;1.45;;;1.35;;
20972;SDS011;10645;52.370;13.314;2023-08-20T12:28:36;1.60;;;1.50;;
20972;SDS011;10645;52.370;13.314;2023-08-20T12:31:02;1.00;;;0.90;;
20972;SDS011;10645;52.370;13.314;2023-08-20T12:33:28;0.80;;;0.80;;
20972;SDS011;10645;52.370;13.314;2023-08-20T12:35:55;1.67;;;1.27;;
20972;SDS011;10645;52.370;13.314;2023-08-20T12:38:21;0.80;;;0.80;;
20972;SDS011;10645;52.370;13.314;2023-08-20T12:40:48;1.35;;;1.17;;
20972;SDS011;10645;52.370;13.314;2023-08-20T12:43:14;1.67;;;1.08;;
20972;SDS011;10645;52.370;13.314;2023-08-20T12:45:40;1.02;;;1.02;;
20972;SDS011;10645;52.370;13.314;2023-08-20T12:48:06;0.88;;;0.88;;
20972;SDS011;10645;52.370;13.314;2023-08-20T12:50:35;0.88;;;0.77;;
20972;SDS011;10645;52.370;13.314;2023-08-20T12:53:01;0.90;;;0.90;;
20972;SDS011;10645;52.370;13.314;2023-08-20T12:55:27;1.10;;;1.10;;
20972;SDS011;10645;52.370;13.314;2023-08-20T12:57:54;1.08;;;1.02;;
20972;SDS011;10645;52.370;13.314;2023-08-20T13:00:21;3.08;;;0.85;;
20972;SDS011;10645;52.370;13.314;2023-08-20T13:02:48;0.90;;;0.90;;
20972;SDS011;10645;52.370;13.314;2023-08-20T13:05:15;0.80;;;0.80;;
20972;SDS011;10645;52.370;13.314;2023-08-20T13:07:41;1.17;;;1.02;;
20972;SDS011;10645;52.370;13.314;2023-08-20T13:10:07;0.98;;;0.90;;
20972;SDS011;10645;52.370;13.314;2023-08-20T13:12:34;2.35;;;1.00;;
20972;SDS011;10645;52.370;13.314;2023-08-20T13:15:00;1.17;;;1.10;;
20972;SDS011;10645;52.370;13.314;2023-08-20T13:17:29;0.60;;;0.60;;
20972;SDS011;10645;52.370;13.314;2023-08-20T13:19:55;0.88;;;0.88;;
20972;SDS011;10645;52.370;13.314;2023-08-20T13:22:22;1.50;;;0.85;;
20972;SDS011;10645;52.370;13.314;2023-08-20T13:24:48;0.82;;;0.80;;
20972;SDS011;10645;52.370;13.314;2023-08-20T13:27:14;0.75;;;0.75;;
20972;SDS011;10645;52.370;13.314;2023-08-20T13:29:40;2.83;;;0.95;;
20972;SDS011;10645;52.370;13.314;2023-08-20T13:32:06;2.25;;;0.82;;
20972;SDS011;10645;52.370;13.314;2023-08-20T13:34:32;0.93;;;0.70;;
20972;SDS011;10645;52.370;13.314;2023-08-20T13:36:59;1.52;;;1.20;;
20972;SDS011;10645;52.370;13.314;2023-08-20T13:39:25;0.80;;;0.80;;
20972;SDS011;10645;52.370;13.314;2023-08-20T13:41:51;1.13;;;1.13;;
20972;SDS011;10645;52.370;13.314;2023-08-20T13:44:17;1.95;;;1.17;;
20972;SDS011;10645;52.370;13.314;2023-08-20T13:46:45;2.05;;;1.05;;
20972;SDS011;10645;52.370;13.314;2023-08-20T13:49:11;0.77;;;0.77;;
20972;SDS011;10645;52.370;13.314;2023-08-20T13:51:37;1.00;;;1.00;;
20972;SDS011;10645;52.370;13.314;2023-08-20T13:54:03;1.55;;;1.35;;
20972;SDS011;10645;52.370;13.314;2023-08-20T13:56:29;0.80;;;0.73;;
20972;SDS011;10645;52.370;13.314;2023-08-20T13:58:55;2.13;;;1.58;;
20972;SDS011;10645;52.370;13.314;2023-08-20T14:01:22;1.05;;;1.02;;
20972;SDS011;10645;52.370;13.314;2023-08-20T14:03:48;2.15;;;1.13;;
20972;SDS011;10645;52.370;13.314;2023-08-20T14:06:15;1.40;;;0.88;;
20972;SDS011;10645;52.370;13.314;2023-08-20T14:08:42;1.35;;;1.25;;
20972;SDS011;10645;52.370;13.314;2023-08-20T14:11:09;0.63;;;0.63;;
20972;SDS011;10645;52.370;13.314;2023-08-20T14:13:35;2.05;;;0.93;;
20972;SDS011;10645;52.370;13.314;2023-08-20T14:16:01;1.15;;;1.00;;
20972;SDS011;10645;52.370;13.314;2023-08-20T14:18:28;0.90;;;0.90;;
20972;SDS011;10645;52.370;13.314;2023-08-20T14:20:54;1.33;;;1.17;;
20972;SDS011;10645;52.370;13.314;2023-08-20T14:23:20;1.58;;;1.48;;
20972;SDS011;10645;52.370;13.314;2023-08-20T14:25:46;1.88;;;1.42;;
20972;SDS011;10645;52.370;13.314;2023-08-20T14:28:12;2.60;;;2.03;;
20972;SDS011;10645;52.370;13.314;2023-08-20T14:30:38;2.63;;;1.73;;
20972;SDS011;10645;52.370;13.314;2023-08-20T14:33:05;1.85;;;1.13;;
20972;SDS011;10645;52.370;13.314;2023-08-20T14:35:32;1.50;;;1.40;;
20972;SDS011;10645;52.370;13.314;2023-08-20T14:37:58;1.10;;;1.00;;
20972;SDS011;10645;52.370;13.314;2023-08-20T14:40:24;1.35;;;1.10;;
20972;SDS011;10645;52.370;13.314;2023-08-20T14:42:50;1.52;;;1.38;;
20972;SDS011;10645;52.370;13.314;2023-08-20T14:45:16;2.10;;;1.50;;